createdAt,value
2022-10-20T00:00:10.234Z,85.75
2022-10-20T00:02:58.718Z,85.74
2022-10-20T00:05:27.550Z,85.85
2022-10-20T00:07:55.874Z,86.17
2022-10-20T00:10:25.167Z,86.09
2022-10-20T00:12:53.778Z,86.56
2022-10-20T00:15:22.169Z,86.92
2022-10-20T00:17:50.480Z,87.05
2022-10-20T00:20:19.226Z,86.57
2022-10-20T00:22:47.782Z,86.55
2022-10-20T00:25:16.440Z,86.46
2022-10-20T00:27:47.292Z,86.46
2022-10-20T00:30:15.681Z,86.49
2022-10-20T00:32:44.344Z,86.37
2022-10-20T00:35:12.859Z,86.60
2022-10-20T00:37:41.212Z,86.42
2022-10-20T00:40:11.311Z,86.54
2022-10-20T00:42:42.632Z,86.61
2022-10-20T00:45:14.027Z,86.63
2022-10-20T00:47:47.432Z,86.69
2022-10-20T00:50:18.930Z,86.57
2022-10-20T00:52:47.449Z,86.99
2022-10-20T00:55:19.889Z,86.91
2022-10-20T00:57:49.664Z,86.78
2022-10-20T01:00:18.691Z,86.88
2022-10-20T01:02:47.222Z,86.77
2022-10-20T01:05:15.693Z,86.84
2022-10-20T01:07:44.098Z,86.94
2022-10-20T01:10:12.765Z,87.33
2022-10-20T01:12:46.893Z,87.34
2022-10-20T01:15:17.018Z,87.92
2022-10-20T01:17:51.948Z,87.76
2022-10-20T01:20:29.785Z,88.02
2022-10-20T01:23:29.921Z,87.81
2022-10-20T01:26:12.596Z,88.03
2022-10-20T01:28:43.279Z,87.70
2022-10-20T01:31:17.017Z,87.46
2022-10-20T01:33:50.253Z,87.30
2022-10-20T01:36:23.256Z,87.21
2022-10-20T01:38:55.997Z,87.26
2022-10-20T01:41:32.377Z,87.53
2022-10-20T01:44:01.587Z,87.76
2022-10-20T01:46:30.369Z,87.50
2022-10-20T01:49:00.181Z,87.54
2022-10-20T01:51:28.980Z,87.73
2022-10-20T01:53:58.628Z,87.67
2022-10-20T01:56:33.397Z,87.49
2022-10-20T01:59:24.552Z,87.36
2022-10-20T02:02:16.295Z,87.54
2022-10-20T02:04:54.098Z,87.33
2022-10-20T02:07:26.609Z,87.41
2022-10-20T02:09:59.863Z,87.58
2022-10-20T02:12:29.675Z,87.56
2022-10-20T02:14:58.919Z,87.76
2022-10-20T02:17:27.837Z,88.44
2022-10-20T02:19:57.589Z,88.41
2022-10-20T02:22:26.541Z,88.79
2022-10-20T02:24:55.157Z,88.60
2022-10-20T02:27:27.317Z,88.84
2022-10-20T02:29:58.887Z,88.55
2022-10-20T02:32:28.248Z,88.71
2022-10-20T02:34:56.741Z,88.62
2022-10-20T02:37:25.563Z,88.53
2022-10-20T02:39:54.177Z,88.56
2022-10-20T02:42:22.693Z,88.88
2022-10-20T02:44:51.153Z,89.16
2022-10-20T02:47:23.100Z,88.77
2022-10-20T02:49:51.720Z,88.59
2022-10-20T02:52:22.271Z,88.61
2022-10-20T02:54:51.117Z,88.68
2022-10-20T02:57:19.963Z,88.77
2022-10-20T02:59:48.948Z,88.92
2022-10-20T03:02:17.257Z,89.09
2022-10-20T03:04:45.875Z,89.02
2022-10-20T03:07:14.860Z,89.00
2022-10-20T03:09:44.173Z,89.05
2022-10-20T03:12:12.674Z,89.13
2022-10-20T03:14:42.218Z,89.33
2022-10-20T03:17:10.747Z,89.63
2022-10-20T03:19:40.307Z,89.12
2022-10-20T03:22:08.731Z,89.03
2022-10-20T03:24:37.180Z,89.11
2022-10-20T03:27:05.959Z,88.96
2022-10-20T03:29:34.442Z,88.98
2022-10-20T03:32:02.852Z,88.84
2022-10-20T03:34:31.352Z,88.92
2022-10-20T03:36:59.802Z,88.56
2022-10-20T03:39:28.132Z,88.61
2022-10-20T03:41:56.918Z,88.50
2022-10-20T03:44:25.851Z,88.67
2022-10-20T03:46:54.284Z,88.71
2022-10-20T03:49:22.866Z,88.71
2022-10-20T03:51:51.334Z,88.68
2022-10-20T03:54:19.675Z,88.83
2022-10-20T03:56:50.055Z,88.48
2022-10-20T03:59:18.490Z,88.46
2022-10-20T04:01:47.639Z,88.37
2022-10-20T04:04:16.316Z,88.39
2022-10-20T04:06:44.976Z,88.30
2022-10-20T04:09:13.739Z,88.46
2022-10-20T04:11:42.210Z,88.49
2022-10-20T04:14:10.973Z,88.33
2022-10-20T04:16:39.495Z,88.28
2022-10-20T04:19:08.305Z,88.21
2022-10-20T04:21:37.765Z,88.11
2022-10-20T04:24:07.013Z,88.25
2022-10-20T04:26:35.329Z,88.28
2022-10-20T04:29:04.255Z,88.45
2022-10-20T04:31:33.912Z,88.41
2022-10-20T04:34:02.290Z,88.46
2022-10-20T04:36:30.849Z,88.52
2022-10-20T04:38:59.519Z,88.63
2022-10-20T04:41:27.944Z,88.61
2022-10-20T04:43:56.434Z,88.51
2022-10-20T04:46:26.080Z,88.49
2022-10-20T04:48:55.134Z,88.54
2022-10-20T04:51:25.551Z,88.40
2022-10-20T04:53:56.902Z,88.32
2022-10-20T04:56:26.089Z,88.50
2022-10-20T04:58:56.342Z,88.49
2022-10-20T05:01:26.413Z,88.34
2022-10-20T05:03:55.366Z,88.35
2022-10-20T05:06:25.359Z,88.25
2022-10-20T05:08:57.009Z,88.13
2022-10-20T05:11:28.949Z,88.20
2022-10-20T05:13:57.486Z,88.44
2022-10-20T05:16:26.994Z,88.56
2022-10-20T05:18:57.984Z,88.73
2022-10-20T05:21:28.672Z,88.44
2022-10-20T05:24:01.094Z,88.61
2022-10-20T05:26:34.248Z,89.18
2022-10-20T05:29:04.403Z,89.33
2022-10-20T05:31:35.794Z,89.30
2022-10-20T05:34:04.921Z,89.58
2022-10-20T05:36:35.102Z,89.44
2022-10-20T05:39:11.589Z,89.34
2022-10-20T05:41:40.649Z,89.36
2022-10-20T05:44:12.616Z,89.48
2022-10-20T05:46:42.017Z,89.48
2022-10-20T05:49:14.720Z,89.37
2022-10-20T05:51:49.255Z,89.47
2022-10-20T05:54:17.881Z,89.54
2022-10-20T05:56:46.619Z,89.52
2022-10-20T05:59:15.100Z,89.47
2022-10-20T06:01:49.786Z,89.46
2022-10-20T06:04:19.274Z,89.63
2022-10-20T06:06:48.206Z,89.68
2022-10-20T06:09:17.382Z,89.52
2022-10-20T06:11:46.579Z,89.32
2022-10-20T06:14:14.997Z,89.32
2022-10-20T06:16:44.068Z,89.50
2022-10-20T06:19:13.071Z,89.40
2022-10-20T06:24:16.261Z,89.53
2022-10-20T06:26:45.254Z,89.65
2022-10-20T06:29:15.621Z,89.71
2022-10-20T06:31:45.498Z,89.36
2022-10-20T06:34:16.448Z,89.45
2022-10-20T06:37:08.464Z,89.44
2022-10-20T06:39:40.281Z,89.35
2022-10-20T06:42:14.805Z,88.84
2022-10-20T06:44:50.732Z,88.95
2022-10-20T06:47:20.683Z,89.24
2022-10-20T06:49:50.088Z,89.12
2022-10-20T06:52:27.681Z,89.17
2022-10-20T06:54:57.571Z,89.05
2022-10-20T06:57:26.250Z,88.79
2022-10-20T06:59:57.975Z,89.14
2022-10-20T07:02:29.913Z,88.99
2022-10-20T07:05:01.521Z,88.90
2022-10-20T07:07:31.101Z,88.85
2022-10-20T07:10:00.064Z,89.12
2022-10-20T07:12:28.745Z,89.13
2022-10-20T07:14:57.105Z,89.10
2022-10-20T07:17:25.559Z,88.88
2022-10-20T07:19:54.369Z,88.65
2022-10-20T07:22:22.736Z,88.79
2022-10-20T07:24:51.395Z,88.68
2022-10-20T07:27:22.527Z,88.89
2022-10-20T07:29:50.926Z,88.50
2022-10-20T07:32:19.244Z,88.71
2022-10-20T07:34:47.854Z,88.43
2022-10-20T07:37:16.266Z,88.33
2022-10-20T07:39:44.781Z,88.29
2022-10-20T07:42:13.420Z,88.17
2022-10-20T07:44:44.253Z,88.31
2022-10-20T07:47:13.415Z,88.18
2022-10-20T07:49:44.441Z,88.11
2022-10-20T07:52:15.946Z,88.04
2022-10-20T07:54:44.968Z,87.89
2022-10-20T07:57:15.902Z,87.93
2022-10-20T07:59:47.056Z,88.03
2022-10-20T08:02:15.830Z,87.67
2022-10-20T08:04:45.035Z,87.51
2022-10-20T08:07:13.390Z,87.88
2022-10-20T08:09:42.063Z,88.75
2022-10-20T08:12:10.470Z,89.49
2022-10-20T08:14:39.103Z,89.78
2022-10-20T08:17:07.553Z,89.21
2022-10-20T08:22:19.970Z,87.37
2022-10-20T08:24:48.449Z,85.98
2022-10-20T08:27:16.839Z,83.39
2022-10-20T08:29:54.926Z,81.29
2022-10-20T08:32:34.315Z,78.52
2022-10-20T08:35:03.429Z,78.33
2022-10-20T08:37:32.465Z,76.45
2022-10-20T08:40:00.806Z,78.57
2022-10-20T08:42:30.004Z,79.09
2022-10-20T08:45:01.439Z,79.13
2022-10-20T08:47:34.668Z,77.06
2022-10-20T08:50:06.979Z,77.56
2022-10-20T08:52:35.736Z,75.03
2022-10-20T08:55:07.312Z,74.01
2022-10-20T08:57:36.687Z,74.96
2022-10-20T09:00:15.997Z,71.84
2022-10-20T09:02:47.186Z,72.17
2022-10-20T09:05:18.400Z,72.90
2022-10-20T09:07:49.366Z,72.41
2022-10-20T09:10:27.383Z,70.45
2022-10-20T09:12:56.568Z,71.71
2022-10-20T09:15:27.336Z,72.41
2022-10-20T09:17:59.133Z,72.75
2022-10-20T09:20:38.238Z,70.85
2022-10-20T09:23:40.499Z,69.37
2022-10-20T09:26:30.383Z,71.45
2022-10-20T09:29:14.637Z,71.52
2022-10-20T09:31:45.755Z,71.21
2022-10-20T09:34:27.991Z,71.57
2022-10-20T09:37:02.317Z,71.90
2022-10-20T09:39:40.136Z,71.68
2022-10-20T09:42:14.030Z,70.78
2022-10-20T09:44:48.952Z,70.54
2022-10-20T09:47:17.795Z,69.84
2022-10-20T09:49:46.838Z,68.89
2022-10-20T09:52:19.339Z,65.36
2022-10-20T09:54:48.851Z,63.68
2022-10-20T09:57:19.876Z,65.80
2022-10-20T09:59:52.997Z,67.02
2022-10-20T10:02:32.713Z,65.49
2022-10-20T10:05:25.858Z,65.78
2022-10-20T10:08:02.717Z,66.52
2022-10-20T10:10:32.350Z,66.01
2022-10-20T10:15:42.858Z,64.00
2022-10-20T10:18:23.560Z,64.03
2022-10-20T10:21:01.567Z,64.92
2022-10-20T10:23:31.414Z,64.53
2022-10-20T10:26:02.043Z,64.80
2022-10-20T10:28:41.424Z,64.97
2022-10-20T10:31:20.809Z,65.54
2022-10-20T10:33:53.154Z,65.82
2022-10-20T10:36:32.475Z,65.77
2022-10-20T10:39:02.454Z,66.24
2022-10-20T10:41:49.422Z,65.81
2022-10-20T10:44:24.192Z,66.16
2022-10-20T10:46:58.882Z,66.38
2022-10-20T10:49:44.838Z,66.45
2022-10-20T10:52:23.285Z,66.20
2022-10-20T10:55:04.656Z,66.27
2022-10-20T10:57:40.959Z,66.16
2022-10-20T11:00:25.967Z,64.32
2022-10-20T11:03:00.708Z,63.99
2022-10-20T11:05:40.799Z,60.97
2022-10-20T11:08:20.322Z,60.03
2022-10-20T11:10:54.958Z,60.61
2022-10-20T11:13:28.206Z,59.69
2022-10-20T11:16:05.445Z,61.25
2022-10-20T11:19:07.546Z,62.51
2022-10-20T11:21:42.751Z,62.95
2022-10-20T11:24:25.298Z,62.22
2022-10-20T11:27:08.974Z,61.73
2022-10-20T11:29:40.046Z,62.35
2022-10-20T11:32:18.674Z,62.19
2022-10-20T11:34:58.840Z,62.21
2022-10-20T11:37:30.402Z,62.02
2022-10-20T11:40:07.561Z,61.16
2022-10-20T11:42:43.823Z,61.17
2022-10-20T11:45:28.156Z,60.69
2022-10-20T11:48:01.823Z,61.43
2022-10-20T11:50:31.734Z,61.83
2022-10-20T11:53:09.068Z,61.98
2022-10-20T11:55:45.126Z,60.72
2022-10-20T11:59:01.111Z,61.42
2022-10-20T12:01:33.815Z,61.44
2022-10-20T12:04:25.052Z,61.57
2022-10-20T12:07:20.402Z,61.72
2022-10-20T12:10:19.718Z,61.39
2022-10-20T12:13:04.978Z,60.86
2022-10-20T12:15:33.669Z,60.81
2022-10-20T12:18:05.937Z,61.43
2022-10-20T12:21:01.212Z,61.94
2022-10-20T12:24:01.834Z,61.56
2022-10-20T12:26:55.735Z,60.57
2022-10-20T12:29:57.180Z,61.13
2022-10-20T12:33:13.152Z,61.70
2022-10-20T12:36:00.082Z,61.20
2022-10-20T12:38:29.802Z,59.28
2022-10-20T12:41:02.484Z,60.14
2022-10-20T12:43:34.089Z,60.88
2022-10-20T12:46:08.238Z,61.16
2022-10-20T12:48:45.226Z,61.14
2022-10-20T12:51:26.696Z,60.32
2022-10-20T12:53:58.790Z,58.94
2022-10-20T12:56:32.087Z,58.64
2022-10-20T12:59:22.607Z,59.34
2022-10-20T13:02:28.549Z,59.51
2022-10-20T13:05:42.873Z,59.90
2022-10-20T13:08:29.192Z,60.28
2022-10-20T13:11:12.890Z,60.39
2022-10-20T13:13:48.782Z,60.23
2022-10-20T13:16:22.217Z,60.89
2022-10-20T13:18:52.695Z,60.82
2022-10-20T13:21:33.574Z,60.71
2022-10-20T13:24:13.423Z,60.28
2022-10-20T13:26:55.842Z,60.23
2022-10-20T13:29:36.790Z,59.87
2022-10-20T13:32:17.377Z,60.33
2022-10-20T13:34:51.182Z,60.36
2022-10-20T13:37:45.669Z,60.15
2022-10-20T13:40:18.894Z,60.01
2022-10-20T13:43:02.733Z,59.49
2022-10-20T13:45:48.243Z,59.76
2022-10-20T13:48:29.099Z,59.97
2022-10-20T13:50:59.962Z,59.79
2022-10-20T13:53:32.016Z,59.96
2022-10-20T13:56:06.111Z,60.01
2022-10-20T13:58:42.691Z,59.97
2022-10-20T14:01:18.710Z,59.70
2022-10-20T14:03:50.249Z,60.03
2022-10-20T14:06:33.387Z,60.13
2022-10-20T14:09:17.324Z,59.73
2022-10-20T14:11:47.171Z,59.66
2022-10-20T14:14:20.187Z,59.94
2022-10-20T14:16:52.628Z,60.17
2022-10-20T14:19:25.896Z,59.85
2022-10-20T14:21:56.044Z,60.09
2022-10-20T14:24:35.022Z,59.86
2022-10-20T14:27:04.862Z,60.22
2022-10-20T14:29:36.540Z,60.40
2022-10-20T14:32:06.249Z,60.51
2022-10-20T14:34:36.122Z,60.43
2022-10-20T14:37:06.937Z,60.06
2022-10-20T14:39:43.194Z,60.17
2022-10-20T14:42:22.859Z,60.19
2022-10-20T14:44:56.918Z,60.26
2022-10-20T14:47:24.777Z,60.75
2022-10-20T14:49:56.309Z,61.03
2022-10-20T14:52:30.500Z,60.82
2022-10-20T14:54:59.386Z,61.00
2022-10-20T14:57:39.461Z,61.09
2022-10-20T15:00:31.236Z,61.19
2022-10-20T15:03:06.090Z,61.37
2022-10-20T15:05:44.085Z,61.33
2022-10-20T15:08:28.020Z,61.85
2022-10-20T15:10:56.857Z,61.85
2022-10-20T15:13:28.542Z,62.02
2022-10-20T15:15:58.019Z,62.20
2022-10-20T15:18:27.693Z,62.61
2022-10-20T15:20:57.082Z,62.49
2022-10-20T15:23:31.241Z,62.39
2022-10-20T15:26:06.042Z,62.37
2022-10-20T15:28:40.581Z,62.52
2022-10-20T15:31:17.620Z,62.75
2022-10-20T15:33:47.514Z,62.72
2022-10-20T15:36:20.283Z,62.99
2022-10-20T15:38:49.659Z,62.96
2022-10-20T15:41:20.007Z,63.09
2022-10-20T15:43:49.170Z,63.23
2022-10-20T15:46:23.212Z,63.35
2022-10-20T15:48:54.031Z,63.59
2022-10-20T15:51:27.984Z,63.62
2022-10-20T15:54:11.569Z,63.75
2022-10-20T15:56:42.995Z,64.09
2022-10-20T15:59:14.170Z,64.10
2022-10-20T16:01:43.220Z,64.19
2022-10-20T16:04:18.421Z,63.99
2022-10-20T16:06:47.630Z,64.05
2022-10-20T16:09:16.612Z,64.33
2022-10-20T16:11:45.908Z,64.29
2022-10-20T16:14:15.281Z,64.60
2022-10-20T16:16:44.667Z,64.21
2022-10-20T16:19:13.630Z,64.74
2022-10-20T16:21:42.163Z,64.67
2022-10-20T16:24:12.153Z,64.61
2022-10-20T16:26:41.479Z,64.76
2022-10-20T16:29:10.106Z,64.85
2022-10-20T16:31:38.598Z,64.88
2022-10-20T16:34:07.254Z,65.16
2022-10-20T16:36:35.993Z,65.03
2022-10-20T16:39:04.692Z,64.82
2022-10-20T16:41:34.049Z,65.25
2022-10-20T16:44:02.662Z,65.37
2022-10-20T16:46:31.224Z,65.49
2022-10-20T16:49:01.184Z,65.46
2022-10-20T16:51:32.647Z,65.53
2022-10-20T16:54:03.448Z,65.60
2022-10-20T16:56:32.628Z,65.40
2022-10-20T16:59:03.917Z,65.49
2022-10-20T17:01:32.712Z,65.46
2022-10-20T17:04:01.398Z,64.77
2022-10-20T17:06:32.012Z,64.59
2022-10-20T17:09:01.191Z,64.40
2022-10-20T17:11:32.368Z,64.03
2022-10-20T17:14:01.653Z,64.40
2022-10-20T17:16:34.659Z,64.78
2022-10-20T17:19:03.854Z,64.92
2022-10-20T17:21:37.757Z,65.31
2022-10-20T17:24:10.546Z,65.43
2022-10-20T17:26:41.248Z,65.50
2022-10-20T17:32:17.376Z,65.75
2022-10-20T17:34:47.378Z,65.84
2022-10-20T17:37:16.294Z,65.72
2022-10-20T17:39:49.116Z,65.83
2022-10-20T17:42:20.720Z,65.90
2022-10-20T17:44:51.579Z,65.93
2022-10-20T17:47:21.532Z,65.78
2022-10-20T17:49:53.188Z,65.82
2022-10-20T17:52:26.832Z,65.81
2022-10-20T17:54:55.908Z,66.00
2022-10-20T17:57:26.614Z,66.11
2022-10-20T17:59:58.671Z,65.97
2022-10-20T18:02:29.273Z,66.30
2022-10-20T18:04:58.364Z,66.27
2022-10-20T18:07:31.358Z,66.37
2022-10-20T18:10:00.089Z,66.46
2022-10-20T18:12:29.392Z,66.68
2022-10-20T18:15:01.537Z,66.62
2022-10-20T18:17:36.470Z,66.95
2022-10-20T18:20:06.512Z,66.88
2022-10-20T18:22:35.499Z,66.94
2022-10-20T18:25:05.119Z,67.09
2022-10-20T18:27:34.213Z,67.14
2022-10-20T18:30:07.953Z,67.28
2022-10-20T18:32:52.749Z,67.40
2022-10-20T18:35:26.642Z,67.37
2022-10-20T18:38:03.432Z,67.50
2022-10-20T18:40:32.551Z,67.67
2022-10-20T18:43:01.344Z,67.67
2022-10-20T18:45:30.669Z,67.71
2022-10-20T18:48:00.353Z,67.78
2022-10-20T18:50:29.795Z,67.84
2022-10-20T18:52:58.362Z,68.19
2022-10-20T18:55:27.563Z,68.16
2022-10-20T18:57:57.706Z,68.37
2022-10-20T19:00:27.589Z,68.59
2022-10-20T19:02:58.054Z,68.77
2022-10-20T19:05:30.347Z,68.79
2022-10-20T19:07:58.989Z,68.88
2022-10-20T19:10:28.780Z,68.90
2022-10-20T19:12:57.606Z,69.15
2022-10-20T19:15:27.295Z,69.14
2022-10-20T19:18:00.793Z,69.37
2022-10-20T19:20:33.996Z,69.75
2022-10-20T19:23:02.809Z,69.96
2022-10-20T19:25:32.857Z,69.81
2022-10-20T19:28:01.626Z,70.04
2022-10-20T19:30:35.503Z,70.01
2022-10-20T19:33:04.118Z,70.37
2022-10-20T19:35:33.412Z,70.49
2022-10-20T19:38:04.849Z,70.58
2022-10-20T19:40:33.518Z,70.59
2022-10-20T19:43:02.065Z,70.85
2022-10-20T19:45:30.843Z,71.09
2022-10-20T19:47:59.620Z,71.09
2022-10-20T19:50:30.239Z,71.50
2022-10-20T19:53:01.835Z,71.61
2022-10-20T19:55:31.405Z,71.76
2022-10-20T19:58:00.168Z,72.03
2022-10-20T20:00:29.786Z,72.04
2022-10-20T20:02:58.816Z,72.15
2022-10-20T20:05:28.075Z,72.45
2022-10-20T20:07:57.483Z,72.39
2022-10-20T20:10:28.530Z,72.70
2022-10-20T20:12:58.058Z,72.63
2022-10-20T20:15:27.346Z,72.59
2022-10-20T20:17:56.767Z,73.11
2022-10-20T20:20:28.298Z,73.01
2022-10-20T20:22:57.381Z,73.11
2022-10-20T20:25:26.621Z,73.45
2022-10-20T20:27:57.926Z,73.11
2022-10-20T20:30:38.642Z,73.20
2022-10-20T20:33:11.073Z,73.36
2022-10-20T20:35:42.200Z,73.33
2022-10-20T20:38:15.602Z,73.70
2022-10-20T20:40:46.441Z,73.76
2022-10-20T20:43:15.053Z,73.61
2022-10-20T20:45:48.071Z,75.07
2022-10-20T20:48:16.876Z,75.16
2022-10-20T20:50:53.573Z,75.46
2022-10-20T20:53:23.629Z,75.49
2022-10-20T20:56:00.017Z,75.36
2022-10-20T20:58:33.139Z,75.57
2022-10-20T21:01:04.456Z,75.63
2022-10-20T21:03:35.527Z,76.08
2022-10-20T21:06:05.788Z,76.48
2022-10-20T21:08:35.004Z,76.64
2022-10-20T21:11:08.293Z,76.33
2022-10-20T21:13:37.581Z,76.19
2022-10-20T21:16:11.938Z,76.35
2022-10-20T21:18:43.391Z,76.60
2022-10-20T21:21:32.649Z,76.94
2022-10-20T21:24:17.851Z,76.92
2022-10-20T21:26:52.398Z,77.20
2022-10-20T21:29:21.186Z,77.25
2022-10-20T21:31:51.154Z,77.29
2022-10-20T21:34:20.728Z,77.44
2022-10-20T21:36:49.510Z,77.46
2022-10-20T21:39:20.511Z,77.83
2022-10-20T21:41:50.786Z,77.89
2022-10-20T21:44:23.622Z,77.70
2022-10-20T21:46:54.459Z,77.53
2022-10-20T21:49:25.585Z,77.57
2022-10-20T21:51:56.515Z,78.06
2022-10-20T21:54:26.934Z,78.11
2022-10-20T21:56:56.253Z,78.08
2022-10-20T21:59:32.989Z,78.19
2022-10-20T22:02:12.833Z,78.57
2022-10-20T22:04:41.625Z,78.35
2022-10-20T22:07:10.575Z,78.32
2022-10-20T22:09:40.378Z,78.71
2022-10-20T22:12:09.009Z,78.54
2022-10-20T22:14:37.750Z,78.69
2022-10-20T22:17:06.207Z,78.98
2022-10-20T22:19:35.128Z,79.29
2022-10-20T22:22:04.118Z,79.23
2022-10-20T22:24:35.104Z,79.16
2022-10-20T22:27:15.371Z,79.11
2022-10-20T22:29:57.269Z,78.82
2022-10-20T22:32:28.665Z,79.21
2022-10-20T22:34:58.058Z,79.00
2022-10-20T22:37:26.517Z,79.27
2022-10-20T22:39:55.599Z,79.45
2022-10-20T22:42:25.020Z,79.35
2022-10-20T22:44:56.138Z,79.46
2022-10-20T22:47:24.738Z,79.61
2022-10-20T22:49:54.164Z,79.58
2022-10-20T22:52:23.492Z,79.89
2022-10-20T22:54:51.950Z,79.95
2022-10-20T22:57:20.598Z,80.08
2022-10-20T22:59:49.243Z,79.96
2022-10-20T23:02:19.156Z,80.13
2022-10-20T23:04:48.769Z,80.40
2022-10-20T23:07:18.313Z,80.45
2022-10-20T23:09:49.812Z,80.57
2022-10-20T23:12:19.173Z,80.49
2022-10-20T23:14:47.888Z,80.44
2022-10-20T23:17:16.650Z,80.58
2022-10-20T23:19:45.986Z,80.49
2022-10-20T23:22:15.272Z,80.23
2022-10-20T23:24:48.345Z,79.97
2022-10-20T23:27:17.428Z,79.89
2022-10-20T23:29:47.671Z,79.81
2022-10-20T23:32:16.085Z,79.90
2022-10-20T23:34:45.134Z,80.14
2022-10-20T23:37:13.819Z,80.31
2022-10-20T23:39:47.920Z,80.27
2022-10-20T23:42:17.209Z,80.41
2022-10-20T23:44:45.714Z,80.37
2022-10-20T23:47:14.273Z,80.45
2022-10-20T23:49:42.917Z,80.55
2022-10-20T23:52:11.497Z,80.65
2022-10-20T23:54:42.352Z,80.99
2022-10-20T23:57:11.426Z,81.54
2022-10-20T23:59:40.289Z,81.77
